Time;durP1;ratioP1;P1;durP2;ratioP2;P2;SDS_P1;SDS_P2;PMS_P1;PMS_P2;Temp;Humidity;BMP_temperature;BMP_pressure;BME280_temperature;BME280_humidity;BME280_pressure;Samples;Min_cycle;Max_cycle;Signal;HPM_P1;HPM_P2
2022/08/03 00:01:39;;;;;;;3.58;3.28;;;;;;;;;;4926641;29;20222;-86
2022/08/03 00:04:04;;;;;;;3.58;3.28;;;;;;;;;;4923780;29;20231;-86
2022/08/03 00:06:30;;;;;;;6.13;3.22;;;;;;;;;;4925740;28;20215;-85
2022/08/03 00:08:55;;;;;;;3.08;2.83;;;;;;;;;;4919437;29;20589;-86
2022/08/03 00:11:21;;;;;;;3.42;3.22;;;;;;;;;;4922828;29;20235;-86
2022/08/03 00:13:46;;;;;;;3.50;3.30;;;;;;;;;;4893073;29;20223;-84
2022/08/03 00:16:12;;;;;;;3.42;3.13;;;;;;;;;;4918602;29;20237;-85
2022/08/03 00:18:38;;;;;;;3.22;3.03;;;;;;;;;;4920792;29;20301;-86
2022/08/03 00:21:03;;;;;;;3.40;3.20;;;;;;;;;;4909109;29;20246;-85
2022/08/03 00:23:29;;;;;;;3.90;3.60;;;;;;;;;;4921325;29;20286;-86
2022/08/03 00:25:55;;;;;;;3.95;3.65;;;;;;;;;;4904320;29;20574;-84
2022/08/03 00:28:20;;;;;;;4.00;3.65;;;;;;;;;;4908984;29;20227;-84
2022/08/03 00:30:48;;;;;;;3.83;3.53;;;;;;;;;;4910190;29;20222;-85
2022/08/03 00:33:14;;;;;;;3.38;3.17;;;;;;;;;;4918033;29;20228;-86
2022/08/03 00:35:39;;;;;;;4.07;3.78;;;;;;;;;;4906988;29;20219;-86
2022/08/03 00:38:05;;;;;;;4.57;4.22;;;;;;;;;;4924133;29;20231;-86
2022/08/03 00:40:32;;;;;;;3.80;3.50;;;;;;;;;;4917950;29;20235;-84
2022/08/03 00:43:01;;;;;;;3.95;3.53;;;;;;;;;;4907984;29;20230;-87
2022/08/03 00:45:31;;;;;;;3.85;3.55;;;;;;;;;;4895011;29;20637;-86
2022/08/03 00:48:03;;;;;;;4.07;3.75;;;;;;;;;;4899351;29;20235;-85
2022/08/03 00:50:29;;;;;;;3.90;3.70;;;;;;;;;;4901852;29;20232;-84
2022/08/03 00:52:57;;;;;;;4.25;3.88;;;;;;;;;;4928354;29;20227;-83
2022/08/03 00:55:23;;;;;;;6.50;3.90;;;;;;;;;;4929304;29;20245;-84
2022/08/03 00:57:50;;;;;;;3.65;3.45;;;;;;;;;;4905907;29;20647;-85
2022/08/03 01:00:18;;;;;;;3.92;3.63;;;;;;;;;;4904527;29;20246;-86
2022/08/03 01:02:44;;;;;;;4.32;3.92;;;;;;;;;;4908920;29;20250;-84
2022/08/03 01:05:12;;;;;;;4.00;3.70;;;;;;;;;;4923767;29;20227;-84
2022/08/03 01:07:43;;;;;;;4.30;4.00;;;;;;;;;;4911976;29;20227;-85
2022/08/03 01:10:26;;;;;;;3.97;3.67;;;;;;;;;;4922343;29;20228;-83
2022/08/03 01:13:21;;;;;;;4.53;4.13;;;;;;;;;;4925095;29;20238;-83
2022/08/03 01:15:49;;;;;;;4.35;4.05;;;;;;;;;;4925431;29;20226;-86
2022/08/03 01:18:23;;;;;;;6.75;4.20;;;;;;;;;;4948472;28;20226;-85
2022/08/03 01:20:52;;;;;;;4.18;3.80;;;;;;;;;;4937228;29;20230;-85
2022/08/03 01:23:36;;;;;;;4.30;4.00;;;;;;;;;;4917512;28;20267;-84
2022/08/03 01:26:17;;;;;;;4.88;4.47;;;;;;;;;;4938142;29;20229;-83
2022/08/03 01:28:56;;;;;;;4.30;4.00;;;;;;;;;;4937168;29;20238;-85
2022/08/03 01:31:25;;;;;;;4.18;3.88;;;;;;;;;;4903319;29;20273;-84
2022/08/03 01:33:54;;;;;;;4.60;4.10;;;;;;;;;;4907213;29;20707;-83
2022/08/03 01:36:22;;;;;;;4.63;4.22;;;;;;;;;;4903312;29;20683;-85
2022/08/03 01:38:55;;;;;;;4.82;4.53;;;;;;;;;;4924942;29;20235;-85
2022/08/03 01:41:23;;;;;;;4.93;4.50;;;;;;;;;;4917411;29;20224;-83
2022/08/03 01:43:49;;;;;;;4.82;4.53;;;;;;;;;;4892887;29;20230;-84
2022/08/03 01:46:16;;;;;;;5.57;4.68;;;;;;;;;;4909184;29;20231;-86
2022/08/03 01:48:42;;;;;;;4.53;4.22;;;;;;;;;;4899295;29;20578;-86
2022/08/03 01:51:09;;;;;;;4.70;4.30;;;;;;;;;;4930139;29;20291;-86
2022/08/03 01:53:36;;;;;;;4.85;4.47;;;;;;;;;;4931388;29;20676;-83
2022/08/03 01:56:01;;;;;;;5.10;4.35;;;;;;;;;;4927815;29;20223;-85
2022/08/03 01:58:27;;;;;;;5.22;4.82;;;;;;;;;;4896252;29;20238;-86
2022/08/03 02:00:58;;;;;;;4.70;4.40;;;;;;;;;;4909591;29;20237;-87
2022/08/03 02:03:28;;;;;;;5.82;4.50;;;;;;;;;;4921392;29;20238;-86
2022/08/03 02:05:54;;;;;;;4.60;4.30;;;;;;;;;;4922848;29;20768;-86
2022/08/03 02:08:23;;;;;;;4.70;4.40;;;;;;;;;;4881328;29;21134;-85
2022/08/03 02:10:48;;;;;;;5.13;4.72;;;;;;;;;;4920531;29;20227;-87
2022/08/03 02:13:16;;;;;;;5.15;4.75;;;;;;;;;;4907896;28;20222;-84
2022/08/03 02:15:44;;;;;;;4.82;4.53;;;;;;;;;;4921914;29;20274;-86
2022/08/03 02:18:09;;;;;;;4.97;4.57;;;;;;;;;;4921399;29;20263;-86
2022/08/03 02:20:37;;;;;;;5.28;4.78;;;;;;;;;;4904012;29;20276;-86
2022/08/03 02:23:03;;;;;;;5.03;4.68;;;;;;;;;;4903843;29;20648;-86
2022/08/03 02:25:33;;;;;;;4.88;4.45;;;;;;;;;;4910964;29;20235;-84
2022/08/03 02:28:09;;;;;;;4.90;4.60;;;;;;;;;;4897421;29;20245;-84
2022/08/03 02:30:37;;;;;;;4.70;4.40;;;;;;;;;;4939718;29;20227;-85
2022/08/03 02:33:03;;;;;;;5.03;4.68;;;;;;;;;;4913149;29;20257;-84
2022/08/03 02:35:28;;;;;;;5.13;4.72;;;;;;;;;;4922354;29;20773;-85
2022/08/03 02:37:56;;;;;;;4.80;4.50;;;;;;;;;;4911049;29;20226;-82
2022/08/03 02:40:22;;;;;;;5.50;5.00;;;;;;;;;;4925967;29;20227;-86
2022/08/03 02:42:49;;;;;;;5.32;4.97;;;;;;;;;;4909573;29;20237;-82
2022/08/03 02:45:14;;;;;;;5.05;4.70;;;;;;;;;;4908842;29;20218;-84
2022/08/03 02:47:40;;;;;;;5.40;5.00;;;;;;;;;;4906313;29;20225;-82
2022/08/03 02:50:13;;;;;;;5.68;4.93;;;;;;;;;;4924833;29;20241;-83
2022/08/03 02:52:38;;;;;;;5.95;4.97;;;;;;;;;;4911819;29;20243;-85
2022/08/03 02:55:07;;;;;;;5.45;4.95;;;;;;;;;;4910400;29;20258;-85
2022/08/03 02:57:35;;;;;;;5.28;4.88;;;;;;;;;;4909165;29;20227;-84
2022/08/03 03:00:01;;;;;;;5.57;4.70;;;;;;;;;;4911140;29;20233;-82
2022/08/03 03:02:29;;;;;;;5.53;5.10;;;;;;;;;;4926367;29;20227;-86
2022/08/03 03:04:54;;;;;;;5.13;4.72;;;;;;;;;;4927954;29;20291;-85
2022/08/03 03:07:20;;;;;;;5.32;4.93;;;;;;;;;;4915935;29;20658;-85
2022/08/03 03:09:46;;;;;;;5.40;5.00;;;;;;;;;;4930475;29;20234;-85
2022/08/03 03:12:15;;;;;;;6.13;5.38;;;;;;;;;;4914887;29;20222;-84
2022/08/03 03:14:41;;;;;;;6.43;5.50;;;;;;;;;;4917561;29;20862;-83
2022/08/03 03:17:09;;;;;;;5.20;4.90;;;;;;;;;;4901326;29;20235;-87
2022/08/03 03:19:34;;;;;;;6.50;5.15;;;;;;;;;;4929444;29;20231;-87
2022/08/03 03:22:00;;;;;;;5.45;5.03;;;;;;;;;;4927010;29;20227;-85
2022/08/03 03:24:27;;;;;;;5.20;4.90;;;;;;;;;;4927887;29;20226;-84
2022/08/03 03:26:52;;;;;;;5.93;5.30;;;;;;;;;;4929247;29;20226;-86
2022/08/03 03:29:18;;;;;;;5.47;5.07;;;;;;;;;;4911215;29;20306;-85
2022/08/03 03:31:45;;;;;;;6.13;5.63;;;;;;;;;;4911137;29;20226;-86
2022/08/03 03:34:11;;;;;;;8.55;5.40;;;;;;;;;;4928176;29;20222;-86
2022/08/03 03:36:36;;;;;;;5.80;5.40;;;;;;;;;;4912164;29;20227;-84
2022/08/03 03:39:02;;;;;;;5.65;5.25;;;;;;;;;;4910053;28;20330;-85
2022/08/03 03:41:27;;;;;;;5.90;5.50;;;;;;;;;;4940988;28;20937;-84
2022/08/03 03:43:53;;;;;;;6.00;5.50;;;;;;;;;;4913133;29;20241;-83
2022/08/03 03:46:18;;;;;;;5.63;5.22;;;;;;;;;;4923613;29;20223;-85
2022/08/03 03:48:44;;;;;;;5.45;5.05;;;;;;;;;;4917945;29;20282;-85
2022/08/03 03:51:09;;;;;;;6.32;5.80;;;;;;;;;;4930926;29;20223;-82
2022/08/03 03:53:35;;;;;;;6.15;5.65;;;;;;;;;;4911498;29;20232;-86
2022/08/03 03:56:01;;;;;;;6.72;6.22;;;;;;;;;;4908712;29;20296;-85
2022/08/03 03:58:28;;;;;;;6.38;5.75;;;;;;;;;;4911459;29;20246;-83
2022/08/03 04:00:54;;;;;;;6.32;5.82;;;;;;;;;;4912596;29;20229;-85
2022/08/03 04:03:19;;;;;;;6.47;5.97;;;;;;;;;;4927884;28;20239;-85
2022/08/03 04:11:29;;;;;;;6.45;5.95;;;;;;;;;;4953359;29;20219;-82
2022/08/03 04:13:59;;;;;;;5.97;5.57;;;;;;;;;;4939198;29;20215;-84
2022/08/03 04:16:30;;;;;;;6.38;5.80;;;;;;;;;;4940393;29;20223;-83
2022/08/03 04:19:08;;;;;;;5.90;5.43;;;;;;;;;;4956091;29;20229;-83
2022/08/03 04:21:40;;;;;;;5.93;5.43;;;;;;;;;;4936963;29;21060;-82
2022/08/03 04:24:07;;;;;;;6.28;5.68;;;;;;;;;;4936069;29;20231;-81
2022/08/03 04:26:33;;;;;;;5.97;5.55;;;;;;;;;;4939500;29;20254;-82
2022/08/03 04:28:59;;;;;;;7.30;5.32;;;;;;;;;;4938451;29;20237;-83
2022/08/03 04:31:27;;;;;;;6.05;5.65;;;;;;;;;;4933229;29;20290;-82
2022/08/03 04:33:53;;;;;;;6.25;5.65;;;;;;;;;;4931192;29;20227;-86
2022/08/03 04:36:20;;;;;;;5.85;5.35;;;;;;;;;;4918525;29;20226;-85
2022/08/03 04:38:55;;;;;;;5.80;5.40;;;;;;;;;;4911123;29;20292;-86
2022/08/03 04:41:21;;;;;;;5.57;5.18;;;;;;;;;;4934850;29;20222;-84
2022/08/03 04:43:47;;;;;;;5.82;5.35;;;;;;;;;;4911175;29;20227;-85
2022/08/03 04:46:15;;;;;;;5.50;5.00;;;;;;;;;;4926007;29;20229;-85
2022/08/03 04:48:43;;;;;;;5.35;4.95;;;;;;;;;;4900197;29;20237;-85
2022/08/03 04:51:12;;;;;;;5.95;5.45;;;;;;;;;;4923272;29;20223;-83
2022/08/03 04:53:37;;;;;;;5.95;5.55;;;;;;;;;;4913153;29;20727;-85
2022/08/03 04:56:06;;;;;;;5.50;5.00;;;;;;;;;;4891967;29;20223;-85
2022/08/03 04:58:31;;;;;;;6.20;5.60;;;;;;;;;;4905994;29;20226;-85
2022/08/03 05:00:57;;;;;;;5.80;5.30;;;;;;;;;;4893661;29;20229;-86
2022/08/03 05:03:23;;;;;;;5.35;4.95;;;;;;;;;;4925265;28;20223;-86
2022/08/03 05:05:48;;;;;;;5.57;5.15;;;;;;;;;;4941577;29;20235;-84
2022/08/03 05:08:16;;;;;;;5.78;5.20;;;;;;;;;;4902975;29;20234;-85
2022/08/03 05:10:42;;;;;;;5.28;4.85;;;;;;;;;;4913467;28;20218;-86
2022/08/03 05:13:12;;;;;;;4.72;4.43;;;;;;;;;;4909386;29;20219;-85
2022/08/03 05:15:40;;;;;;;5.10;4.70;;;;;;;;;;4926064;29;20313;-85
2022/08/03 05:18:06;;;;;;;5.45;4.95;;;;;;;;;;4941523;29;20211;-85
2022/08/03 05:20:31;;;;;;;5.68;5.18;;;;;;;;;;4912079;29;20251;-86
2022/08/03 05:23:00;;;;;;;4.75;4.45;;;;;;;;;;4905734;29;20335;-85
2022/08/03 05:25:26;;;;;;;4.90;4.43;;;;;;;;;;4901911;29;20232;-85
2022/08/03 05:27:52;;;;;;;4.90;4.35;;;;;;;;;;4922138;29;20231;-84
2022/08/03 05:30:18;;;;;;;5.05;4.55;;;;;;;;;;4908039;29;20225;-85
2022/08/03 05:32:45;;;;;;;4.40;4.00;;;;;;;;;;4934995;29;20219;-85
2022/08/03 05:35:13;;;;;;;4.40;4.10;;;;;;;;;;4925348;29;20226;-86
2022/08/03 05:37:43;;;;;;;4.82;4.50;;;;;;;;;;4904622;29;20223;-85
2022/08/03 05:40:12;;;;;;;4.28;3.97;;;;;;;;;;4924707;29;20235;-85
2022/08/03 05:42:37;;;;;;;4.55;4.22;;;;;;;;;;4921608;29;20610;-84
2022/08/03 05:45:13;;;;;;;4.32;4.03;;;;;;;;;;4908972;29;20231;-86
2022/08/03 05:47:43;;;;;;;4.38;4.07;;;;;;;;;;4942872;29;20226;-83
2022/08/03 05:50:14;;;;;;;4.70;4.30;;;;;;;;;;4922265;29;20290;-85
2022/08/03 05:52:40;;;;;;;4.90;4.45;;;;;;;;;;4908736;29;20218;-85
2022/08/03 05:55:06;;;;;;;4.35;3.95;;;;;;;;;;4909372;29;20831;-84
2022/08/03 05:57:34;;;;;;;4.40;4.00;;;;;;;;;;4899468;29;20226;-83
2022/08/03 06:00:05;;;;;;;4.15;3.85;;;;;;;;;;4922934;29;20238;-85
2022/08/03 06:02:41;;;;;;;4.28;3.90;;;;;;;;;;4917865;29;20238;-87
2022/08/03 06:05:07;;;;;;;4.50;4.10;;;;;;;;;;4921671;29;20265;-85
2022/08/03 06:07:33;;;;;;;4.32;3.92;;;;;;;;;;4922268;29;20272;-87
2022/08/03 06:10:00;;;;;;;4.32;4.03;;;;;;;;;;4928118;29;20613;-85
2022/08/03 06:12:28;;;;;;;3.75;3.45;;;;;;;;;;4901215;29;20225;-85
2022/08/03 06:14:54;;;;;;;3.70;3.35;;;;;;;;;;4926439;29;20246;-84
2022/08/03 06:17:20;;;;;;;4.00;3.70;;;;;;;;;;4909796;29;20231;-86
2022/08/03 06:19:45;;;;;;;3.53;3.28;;;;;;;;;;4926264;29;20222;-85
2022/08/03 06:22:11;;;;;;;3.88;3.58;;;;;;;;;;4906586;29;20650;-85
2022/08/03 06:24:39;;;;;;;3.70;3.40;;;;;;;;;;4925054;29;20231;-85
2022/08/03 06:27:07;;;;;;;3.55;3.33;;;;;;;;;;4908738;29;20233;-87
2022/08/03 06:29:32;;;;;;;3.45;3.25;;;;;;;;;;4908018;29;20231;-87
2022/08/03 06:32:00;;;;;;;3.58;3.03;;;;;;;;;;4906966;29;20235;-85
2022/08/03 06:34:28;;;;;;;3.80;2.90;;;;;;;;;;4908825;29;20246;-85
2022/08/03 06:36:58;;;;;;;3.40;3.10;;;;;;;;;;4904910;29;20255;-85
2022/08/03 06:39:23;;;;;;;3.10;2.85;;;;;;;;;;4911260;29;20223;-84
2022/08/03 06:41:49;;;;;;;4.07;3.00;;;;;;;;;;4938866;29;20226;-87
2022/08/03 06:44:20;;;;;;;3.15;2.83;;;;;;;;;;4912501;29;20227;-87
2022/08/03 06:46:46;;;;;;;5.03;2.90;;;;;;;;;;4912994;29;20234;-87
2022/08/03 06:49:14;;;;;;;2.60;2.40;;;;;;;;;;4918104;29;20249;-84
2022/08/03 06:51:42;;;;;;;2.80;2.60;;;;;;;;;;4909215;29;20223;-86
2022/08/03 06:54:11;;;;;;;2.75;2.55;;;;;;;;;;4927682;29;20227;-87
2022/08/03 06:56:36;;;;;;;2.80;2.60;;;;;;;;;;4917795;29;20230;-85
2022/08/03 06:59:07;;;;;;;6.78;2.40;;;;;;;;;;4918856;29;20716;-87
2022/08/03 07:01:35;;;;;;;2.30;2.20;;;;;;;;;;4911413;29;20286;-85
2022/08/03 07:04:00;;;;;;;3.63;2.30;;;;;;;;;;4944752;29;20235;-84
2022/08/03 07:06:26;;;;;;;2.10;1.92;;;;;;;;;;4910247;29;20261;-85
2022/08/03 07:08:53;;;;;;;3.38;2.42;;;;;;;;;;4922765;29;20239;-86
2022/08/03 07:11:23;;;;;;;2.60;2.40;;;;;;;;;;4900032;29;20807;-87
2022/08/03 07:13:49;;;;;;;2.75;2.10;;;;;;;;;;4934447;29;20226;-88
2022/08/03 07:16:15;;;;;;;2.50;2.28;;;;;;;;;;4936175;28;20722;-86
2022/08/03 07:18:43;;;;;;;2.38;2.28;;;;;;;;;;4934574;29;20223;-87
2022/08/03 07:21:09;;;;;;;2.65;2.10;;;;;;;;;;4908547;29;20231;-88
2022/08/03 07:23:35;;;;;;;2.80;2.20;;;;;;;;;;4926553;29;20226;-87
2022/08/03 07:26:03;;;;;;;3.42;2.20;;;;;;;;;;4908845;29;20223;-86
2022/08/03 07:28:29;;;;;;;3.28;2.00;;;;;;;;;;4917844;29;20230;-87
2022/08/03 07:30:54;;;;;;;2.00;1.90;;;;;;;;;;4927546;29;20235;-87
2022/08/03 07:33:24;;;;;;;2.40;2.20;;;;;;;;;;4918546;28;20225;-87
2022/08/03 07:35:50;;;;;;;3.40;2.08;;;;;;;;;;4926122;29;20242;-86
2022/08/03 07:38:15;;;;;;;1.90;1.80;;;;;;;;;;4924248;29;20231;-87
2022/08/03 07:40:43;;;;;;;1.75;1.65;;;;;;;;;;4922084;29;20578;-89
2022/08/03 07:43:11;;;;;;;2.83;1.65;;;;;;;;;;4907655;28;20255;-87
2022/08/03 07:45:39;;;;;;;1.80;1.70;;;;;;;;;;4896447;29;20268;-89
2022/08/03 07:48:04;;;;;;;3.50;1.80;;;;;;;;;;4908180;29;20263;-88
2022/08/03 07:50:30;;;;;;;1.80;1.70;;;;;;;;;;4914742;29;20705;-86
2022/08/03 07:52:58;;;;;;;1.70;1.60;;;;;;;;;;4910546;29;20227;-88
2022/08/03 07:55:24;;;;;;;2.42;1.63;;;;;;;;;;4927559;29;20231;-87
2022/08/03 07:58:11;;;;;;;4.05;2.00;;;;;;;;;;4928011;29;20245;-88
2022/08/03 08:00:36;;;;;;;2.13;1.70;;;;;;;;;;4913327;29;20284;-87
2022/08/03 08:03:07;;;;;;;2.25;2.00;;;;;;;;;;4934570;29;20604;-88
2022/08/03 08:05:33;;;;;;;2.55;1.95;;;;;;;;;;4915308;29;20250;-88
2022/08/03 08:08:01;;;;;;;2.03;1.45;;;;;;;;;;4912277;29;20262;-88
2022/08/03 08:10:27;;;;;;;3.90;1.90;;;;;;;;;;4913780;29;20302;-89
2022/08/03 08:12:53;;;;;;;1.50;1.40;;;;;;;;;;4925590;29;20625;-88
2022/08/03 08:15:21;;;;;;;3.13;1.55;;;;;;;;;;4906755;29;20246;-88
2022/08/03 08:17:50;;;;;;;3.08;1.75;;;;;;;;;;4930360;29;20218;-86
2022/08/03 08:20:27;;;;;;;3.45;1.95;;;;;;;;;;4950319;28;20226;-87
2022/08/03 08:22:58;;;;;;;3.28;1.65;;;;;;;;;;4943374;29;20234;-88
2022/08/03 08:25:26;;;;;;;4.80;1.65;;;;;;;;;;4917158;28;20234;-89
2022/08/03 08:27:52;;;;;;;2.08;1.52;;;;;;;;;;4893637;29;20238;-86
2022/08/03 08:30:19;;;;;;;1.83;1.33;;;;;;;;;;4915178;29;20629;-88
2022/08/03 08:32:46;;;;;;;2.45;1.38;;;;;;;;;;4913758;29;20234;-85
2022/08/03 08:35:14;;;;;;;2.50;1.50;;;;;;;;;;4947312;28;20218;-87
2022/08/03 08:37:40;;;;;;;1.75;1.20;;;;;;;;;;4915952;29;20225;-85
2022/08/03 08:40:06;;;;;;;2.92;1.40;;;;;;;;;;4929190;29;20234;-85
2022/08/03 08:42:32;;;;;;;1.42;1.27;;;;;;;;;;4913668;29;20231;-87
2022/08/03 08:45:05;;;;;;;4.25;1.40;;;;;;;;;;4891056;29;20311;-86
2022/08/03 08:47:30;;;;;;;2.13;1.50;;;;;;;;;;4928729;29;20303;-87
2022/08/03 08:49:59;;;;;;;1.13;1.10;;;;;;;;;;4931174;29;20345;-85
2022/08/03 08:52:26;;;;;;;3.30;1.40;;;;;;;;;;4910774;29;20219;-86
2022/08/03 08:54:58;;;;;;;1.27;1.17;;;;;;;;;;4921180;29;20258;-87
2022/08/03 08:57:37;;;;;;;1.63;1.42;;;;;;;;;;4918750;29;20238;-86
2022/08/03 09:00:04;;;;;;;2.25;1.42;;;;;;;;;;4937749;28;20222;-84
2022/08/03 09:02:30;;;;;;;2.42;1.40;;;;;;;;;;4921266;29;20222;-89
2022/08/03 09:04:56;;;;;;;4.78;1.60;;;;;;;;;;4917773;29;20262;-88
2022/08/03 09:07:21;;;;;;;2.53;1.70;;;;;;;;;;4932561;29;20211;-84
2022/08/03 09:09:47;;;;;;;2.47;1.50;;;;;;;;;;4907495;29;20226;-85
2022/08/03 09:12:15;;;;;;;2.47;1.50;;;;;;;;;;4941476;28;20222;-87
2022/08/03 09:14:44;;;;;;;1.75;1.63;;;;;;;;;;4935064;29;20235;-84
2022/08/03 09:17:09;;;;;;;5.82;1.60;;;;;;;;;;4958728;28;20231;-84
2022/08/03 09:19:35;;;;;;;3.88;1.52;;;;;;;;;;4952182;28;20365;-85
2022/08/03 09:22:14;;;;;;;2.08;1.50;;;;;;;;;;4911302;29;20230;-84
2022/08/03 09:24:56;;;;;;;2.17;1.55;;;;;;;;;;4916148;29;20230;-83
2022/08/03 09:27:24;;;;;;;3.60;1.50;;;;;;;;;;4911671;29;20270;-85
2022/08/03 09:29:53;;;;;;;2.97;1.52;;;;;;;;;;4908916;29;20252;-88
2022/08/03 09:32:20;;;;;;;3.65;1.50;;;;;;;;;;4892674;29;21037;-85
2022/08/03 09:34:46;;;;;;;2.63;1.50;;;;;;;;;;4924303;29;20257;-84
2022/08/03 09:37:13;;;;;;;4.22;1.70;;;;;;;;;;4908497;29;20225;-85
2022/08/03 09:39:41;;;;;;;5.32;1.65;;;;;;;;;;4957771;29;20287;-87
2022/08/03 09:42:17;;;;;;;2.97;1.73;;;;;;;;;;4940479;28;20235;-87
2022/08/03 09:44:47;;;;;;;1.60;1.30;;;;;;;;;;4914106;29;20235;-86
2022/08/03 09:47:19;;;;;;;2.10;1.38;;;;;;;;;;4916894;29;20233;-85
2022/08/03 09:49:57;;;;;;;2.03;1.30;;;;;;;;;;4915008;29;20222;-87
2022/08/03 09:52:28;;;;;;;2.08;1.40;;;;;;;;;;4927630;29;20230;-86
2022/08/03 09:54:53;;;;;;;2.25;1.55;;;;;;;;;;4910542;29;20238;-86
2022/08/03 09:57:21;;;;;;;3.03;1.58;;;;;;;;;;4927946;29;20221;-86
2022/08/03 09:59:46;;;;;;;1.73;1.20;;;;;;;;;;4910916;29;20226;-84
2022/08/03 10:02:23;;;;;;;2.10;1.52;;;;;;;;;;4893418;29;20280;-84
2022/08/03 10:04:51;;;;;;;3.88;1.50;;;;;;;;;;4912831;29;20325;-85
2022/08/03 10:07:20;;;;;;;2.78;1.50;;;;;;;;;;4905737;29;20239;-86
2022/08/03 10:10:01;;;;;;;2.65;1.30;;;;;;;;;;4925436;29;20238;-84
2022/08/03 10:12:28;;;;;;;2.00;1.30;;;;;;;;;;4918954;29;20222;-86
2022/08/03 10:14:56;;;;;;;2.88;1.48;;;;;;;;;;4897943;29;20231;-85
2022/08/03 10:17:21;;;;;;;4.35;1.27;;;;;;;;;;4922270;29;20570;-84
2022/08/03 10:19:49;;;;;;;2.90;1.50;;;;;;;;;;4925274;29;20315;-85
2022/08/03 10:22:25;;;;;;;1.67;1.30;;;;;;;;;;4896265;29;20238;-85
2022/08/03 10:25:06;;;;;;;2.35;1.30;;;;;;;;;;4910757;29;20330;-86
2022/08/03 10:27:34;;;;;;;2.30;1.48;;;;;;;;;;4938192;29;20230;-85
2022/08/03 10:30:07;;;;;;;1.65;1.10;;;;;;;;;;4910797;29;20231;-86
2022/08/03 10:32:52;;;;;;;1.63;1.42;;;;;;;;;;4904686;29;20227;-86
2022/08/03 10:35:20;;;;;;;2.63;1.50;;;;;;;;;;4896495;29;20243;-83
2022/08/03 10:38:15;;;;;;;5.68;1.33;;;;;;;;;;4910255;29;20304;-87
2022/08/03 10:40:43;;;;;;;4.45;1.50;;;;;;;;;;4934831;28;20245;-85
2022/08/03 10:43:11;;;;;;;3.55;1.30;;;;;;;;;;4929833;29;20237;-88
2022/08/03 10:45:42;;;;;;;1.67;1.27;;;;;;;;;;4887449;29;20230;-86
2022/08/03 10:48:07;;;;;;;3.72;1.35;;;;;;;;;;4911245;29;20236;-83
2022/08/03 10:50:33;;;;;;;2.22;1.27;;;;;;;;;;4909505;29;20218;-86
2022/08/03 10:53:05;;;;;;;1.65;1.27;;;;;;;;;;4908915;29;20242;-86
2022/08/03 10:58:44;;;;;;;4.65;1.35;;;;;;;;;;4943041;28;20234;-88
2022/08/03 11:01:10;;;;;;;2.75;1.58;;;;;;;;;;4943669;28;20231;-85
2022/08/03 11:03:53;;;;;;;4.53;1.30;;;;;;;;;;4918906;29;20226;-86
2022/08/03 11:06:19;;;;;;;2.92;1.38;;;;;;;;;;4925624;29;20249;-85
2022/08/03 11:08:48;;;;;;;4.47;1.58;;;;;;;;;;4923217;29;20219;-86
2022/08/03 11:11:16;;;;;;;6.32;1.67;;;;;;;;;;4911291;29;20226;-89
2022/08/03 11:14:03;;;;;;;3.40;1.33;;;;;;;;;;4947179;29;20222;-87
2022/08/03 11:16:31;;;;;;;1.92;1.50;;;;;;;;;;4914966;29;20227;-86
2022/08/03 11:18:57;;;;;;;2.50;1.17;;;;;;;;;;4960692;29;20250;-85
2022/08/03 11:24:33;;;;;;;3.75;1.40;;;;;;;;;;4953796;28;20235;-85
2022/08/03 11:27:21;;;;;;;2.88;1.33;;;;;;;;;;4954898;29;20247;-87
2022/08/03 11:30:14;;;;;;;2.90;1.60;;;;;;;;;;4957614;29;20237;-88
2022/08/03 11:32:46;;;;;;;2.25;1.40;;;;;;;;;;4927071;29;20249;-87
2022/08/03 11:35:24;;;;;;;2.78;1.40;;;;;;;;;;4935566;29;20242;-86
2022/08/03 11:37:52;;;;;;;2.63;1.45;;;;;;;;;;4937100;29;20313;-86
2022/08/03 11:40:47;;;;;;;2.08;1.40;;;;;;;;;;4950316;28;20226;-88
2022/08/03 11:43:21;;;;;;;1.95;1.30;;;;;;;;;;4930808;29;20239;-87
2022/08/03 11:46:04;;;;;;;2.42;1.35;;;;;;;;;;4928352;29;20227;-87
2022/08/03 11:48:32;;;;;;;3.00;1.77;;;;;;;;;;4942883;29;20222;-87
2022/08/03 11:50:58;;;;;;;1.52;1.27;;;;;;;;;;4941532;29;20282;-87
2022/08/03 11:53:26;;;;;;;4.07;1.35;;;;;;;;;;4914299;28;20278;-88
2022/08/03 11:55:52;;;;;;;4.35;1.23;;;;;;;;;;4916046;29;20246;-87
2022/08/03 11:58:21;;;;;;;3.13;1.42;;;;;;;;;;4912562;29;20311;-83
2022/08/03 12:00:47;;;;;;;4.35;1.23;;;;;;;;;;4941409;29;20251;-88
2022/08/03 12:03:17;;;;;;;2.30;1.40;;;;;;;;;;4911322;29;20235;-87
2022/08/03 12:05:50;;;;;;;3.28;1.30;;;;;;;;;;4922762;29;20262;-88
2022/08/03 12:08:18;;;;;;;2.92;1.40;;;;;;;;;;4915476;29;20231;-87
2022/08/03 12:10:48;;;;;;;1.70;1.00;;;;;;;;;;4916267;28;20240;-87
2022/08/03 12:13:17;;;;;;;3.75;1.23;;;;;;;;;;4931687;28;20246;-87
2022/08/03 12:15:44;;;;;;;2.15;1.38;;;;;;;;;;4917820;29;20215;-83
2022/08/03 12:18:14;;;;;;;2.50;1.45;;;;;;;;;;4920620;29;20617;-88
2022/08/03 12:20:42;;;;;;;3.53;1.70;;;;;;;;;;4911667;29;20685;-86
2022/08/03 12:23:10;;;;;;;3.05;1.40;;;;;;;;;;4922231;29;20302;-86
2022/08/03 12:25:37;;;;;;;1.52;1.30;;;;;;;;;;4910668;29;20302;-86
2022/08/03 12:28:15;;;;;;;2.00;1.30;;;;;;;;;;4924634;29;20236;-85
2022/08/03 12:30:42;;;;;;;2.35;1.48;;;;;;;;;;4910858;29;20219;-87
2022/08/03 12:33:18;;;;;;;2.83;1.50;;;;;;;;;;4941310;29;20254;-87
2022/08/03 12:35:48;;;;;;;3.90;1.58;;;;;;;;;;4950596;28;20303;-89
2022/08/03 12:38:18;;;;;;;2.33;1.42;;;;;;;;;;4911116;28;20226;-89
2022/08/03 12:40:59;;;;;;;4.38;1.45;;;;;;;;;;4923437;29;20310;-87
2022/08/03 12:43:25;;;;;;;6.07;1.38;;;;;;;;;;4939268;28;20242;-86
2022/08/03 12:46:13;;;;;;;1.52;1.17;;;;;;;;;;4905969;29;20342;-88
2022/08/03 12:49:13;;;;;;;2.13;1.30;;;;;;;;;;4911967;29;20239;-86
2022/08/03 12:51:44;;;;;;;2.53;1.40;;;;;;;;;;4925733;29;20226;-84
2022/08/03 12:54:21;;;;;;;4.35;1.30;;;;;;;;;;4946148;29;20608;-86
2022/08/03 12:56:56;;;;;;;4.40;1.20;;;;;;;;;;4938363;29;20227;-85
2022/08/03 12:59:45;;;;;;;4.05;1.30;;;;;;;;;;4948136;29;20261;-85
2022/08/03 13:02:15;;;;;;;3.95;1.33;;;;;;;;;;4923178;29;20234;-86
2022/08/03 13:04:41;;;;;;;2.08;1.02;;;;;;;;;;4939780;29;20247;-87
2022/08/03 13:07:07;;;;;;;5.80;1.40;;;;;;;;;;4907400;29;20291;-87
2022/08/03 13:09:46;;;;;;;1.38;1.20;;;;;;;;;;4906750;29;20227;-86
2022/08/03 13:12:16;;;;;;;3.85;1.23;;;;;;;;;;4935110;28;20312;-86
2022/08/03 13:14:50;;;;;;;1.75;1.17;;;;;;;;;;4941136;29;20230;-86
2022/08/03 13:17:18;;;;;;;2.65;1.40;;;;;;;;;;4912606;29;20222;-87
2022/08/03 13:19:45;;;;;;;1.83;1.20;;;;;;;;;;4910638;29;20242;-86
2022/08/03 13:22:11;;;;;;;1.95;1.30;;;;;;;;;;4883944;29;20236;-86
2022/08/03 13:24:37;;;;;;;2.30;1.35;;;;;;;;;;4951448;28;20223;-87
2022/08/03 13:27:08;;;;;;;2.70;1.42;;;;;;;;;;4917605;29;20517;-88
2022/08/03 13:29:36;;;;;;;2.55;1.65;;;;;;;;;;4933665;29;20254;-88
2022/08/03 13:32:02;;;;;;;3.08;1.60;;;;;;;;;;4924482;29;20927;-87
2022/08/03 13:34:27;;;;;;;2.30;1.27;;;;;;;;;;4925807;29;20223;-86
2022/08/03 13:36:55;;;;;;;3.60;1.50;;;;;;;;;;4926030;29;20230;-85
2022/08/03 13:39:21;;;;;;;3.42;1.60;;;;;;;;;;4895923;29;20223;-86
2022/08/03 13:41:47;;;;;;;2.17;1.30;;;;;;;;;;4916251;29;20288;-88
2022/08/03 13:44:12;;;;;;;2.40;1.65;;;;;;;;;;4927667;29;20231;-86
2022/08/03 13:46:40;;;;;;;2.03;1.10;;;;;;;;;;4917397;29;20239;-87
2022/08/03 13:49:08;;;;;;;2.08;1.23;;;;;;;;;;4923032;29;20266;-86
2022/08/03 13:51:34;;;;;;;2.33;1.30;;;;;;;;;;4927133;29;20218;-85
2022/08/03 13:53:59;;;;;;;1.70;1.30;;;;;;;;;;4914547;29;20234;-87
2022/08/03 13:56:25;;;;;;;3.30;1.25;;;;;;;;;;4898142;29;20297;-85
2022/08/03 13:58:54;;;;;;;1.98;1.30;;;;;;;;;;4897615;29;21239;-88
2022/08/03 14:01:21;;;;;;;2.33;1.40;;;;;;;;;;4913464;29;20231;-86
2022/08/03 14:03:51;;;;;;;2.38;1.10;;;;;;;;;;4920495;29;20234;-87
2022/08/03 14:06:17;;;;;;;3.60;1.60;;;;;;;;;;4939080;29;20234;-89
2022/08/03 14:08:43;;;;;;;3.22;1.30;;;;;;;;;;4909109;29;20275;-85
2022/08/03 14:11:09;;;;;;;3.00;1.13;;;;;;;;;;4906626;29;20223;-86
2022/08/03 14:13:35;;;;;;;3.63;1.20;;;;;;;;;;4936518;29;20242;-86
2022/08/03 14:16:02;;;;;;;2.60;1.50;;;;;;;;;;4910614;29;20313;-87
2022/08/03 14:18:30;;;;;;;3.10;1.30;;;;;;;;;;4908393;29;20230;-85
2022/08/03 14:20:56;;;;;;;3.85;1.30;;;;;;;;;;4923754;29;20255;-85
2022/08/03 14:23:22;;;;;;;2.85;1.30;;;;;;;;;;4902865;23;22973;-76
2022/08/03 14:25:48;;;;;;;2.60;1.40;;;;;;;;;;4911764;28;20280;-76
2022/08/03 14:28:13;;;;;;;1.50;1.30;;;;;;;;;;4953315;28;20719;-76
2022/08/03 14:30:41;;;;;;;8.15;1.67;;;;;;;;;;4954467;28;20276;-77
2022/08/03 14:33:15;;;;;;;2.28;1.42;;;;;;;;;;4936263;28;20234;-77
2022/08/03 14:35:43;;;;;;;2.47;1.50;;;;;;;;;;4940137;28;20221;-75
2022/08/03 14:38:08;;;;;;;2.90;1.40;;;;;;;;;;4921088;28;20241;-76
2022/08/03 14:40:36;;;;;;;2.88;1.35;;;;;;;;;;4922599;28;20315;-76
2022/08/03 14:43:04;;;;;;;3.72;1.40;;;;;;;;;;4935123;28;20225;-77
2022/08/03 14:45:30;;;;;;;3.83;1.50;;;;;;;;;;4952149;28;20242;-75
2022/08/03 14:48:00;;;;;;;3.97;1.52;;;;;;;;;;4946700;28;20233;-76
2022/08/03 14:50:28;;;;;;;5.97;1.67;;;;;;;;;;4937452;28;20372;-76
2022/08/03 14:52:56;;;;;;;1.85;1.30;;;;;;;;;;4952727;28;20218;-75
2022/08/03 14:55:24;;;;;;;1.40;1.00;;;;;;;;;;4902301;28;20226;-77
2022/08/03 14:57:50;;;;;;;3.25;1.38;;;;;;;;;;4935608;28;21104;-77
2022/08/03 15:00:18;;;;;;;4.75;1.35;;;;;;;;;;4922010;28;20218;-78
2022/08/03 15:02:44;;;;;;;3.13;1.30;;;;;;;;;;4947897;28;20231;-76
2022/08/03 15:05:13;;;;;;;2.50;1.30;;;;;;;;;;4937371;28;20214;-76